sensor_id;sensor_type;location;lat;lon;timestamp;temperature;humidity
14236;DHT22;7202;50.718;7.072;2022-08-21T00:01:13;17.10;99.90
14236;DHT22;7202;50.718;7.072;2022-08-21T00:03:42;17.10;99.90
14236;DHT22;7202;50.718;7.072;2022-08-21T00:06:11;17.10;99.90
14236;DHT22;7202;50.718;7.072;2022-08-21T00:08:41;17.00;99.90
14236;DHT22;7202;50.718;7.072;2022-08-21T00:11:11;17.00;99.90
14236;DHT22;7202;50.718;7.072;2022-08-21T00:13:39;17.00;99.90
14236;DHT22;7202;50.718;7.072;2022-08-21T00:16:08;17.00;99.90
14236;DHT22;7202;50.718;7.072;2022-08-21T00:18:37;17.00;99.90
14236;DHT22;7202;50.718;7.072;2022-08-21T00:21:06;17.10;99.90
14236;DHT22;7202;50.718;7.072;2022-08-21T00:23:35;17.00;99.90
14236;DHT22;7202;50.718;7.072;2022-08-21T00:26:05;17.10;99.90
14236;DHT22;7202;50.718;7.072;2022-08-21T00:28:35;17.00;99.90
14236;DHT22;7202;50.718;7.072;2022-08-21T00:31:03;17.00;99.90
14236;DHT22;7202;50.718;7.072;2022-08-21T00:33:32;16.90;99.90
14236;DHT22;7202;50.718;7.072;2022-08-21T00:36:02;16.90;99.90
14236;DHT22;7202;50.718;7.072;2022-08-21T00:38:31;16.80;99.90
14236;DHT22;7202;50.718;7.072;2022-08-21T00:41:01;16.80;99.90
14236;DHT22;7202;50.718;7.072;2022-08-21T00:43:52;16.70;99.90
14236;DHT22;7202;50.718;7.072;2022-08-21T00:46:21;16.70;99.90
14236;DHT22;7202;50.718;7.072;2022-08-21T00:48:55;16.70;99.90
14236;DHT22;7202;50.718;7.072;2022-08-21T00:51:30;16.70;99.90
14236;DHT22;7202;50.718;7.072;2022-08-21T00:54:06;16.70;99.90
14236;DHT22;7202;50.718;7.072;2022-08-21T00:56:47;16.60;99.90
14236;DHT22;7202;50.718;7.072;2022-08-21T00:59:20;16.60;99.90
14236;DHT22;7202;50.718;7.072;2022-08-21T01:01:49;16.60;99.90
14236;DHT22;7202;50.718;7.072;2022-08-21T01:04:19;16.60;99.90
14236;DHT22;7202;50.718;7.072;2022-08-21T01:06:49;16.60;99.90
14236;DHT22;7202;50.718;7.072;2022-08-21T01:09:19;16.60;99.90
14236;DHT22;7202;50.718;7.072;2022-08-21T01:11:47;16.50;99.90
14236;DHT22;7202;50.718;7.072;2022-08-21T01:14:16;16.50;99.90
14236;DHT22;7202;50.718;7.072;2022-08-21T01:16:49;16.50;99.90
14236;DHT22;7202;50.718;7.072;2022-08-21T01:19:21;16.50;99.90
14236;DHT22;7202;50.718;7.072;2022-08-21T01:21:52;16.50;99.90
14236;DHT22;7202;50.718;7.072;2022-08-21T01:24:21;16.40;99.90
14236;DHT22;7202;50.718;7.072;2022-08-21T01:26:51;16.40;99.90
14236;DHT22;7202;50.718;7.072;2022-08-21T01:29:30;16.30;99.90
14236;DHT22;7202;50.718;7.072;2022-08-21T01:32:04;16.20;99.90
14236;DHT22;7202;50.718;7.072;2022-08-21T01:34:34;16.20;99.90
14236;DHT22;7202;50.718;7.072;2022-08-21T01:37:06;16.10;99.90
14236;DHT22;7202;50.718;7.072;2022-08-21T01:39:35;16.10;99.90
14236;DHT22;7202;50.718;7.072;2022-08-21T01:42:05;16.10;99.90
14236;DHT22;7202;50.718;7.072;2022-08-21T01:44:34;16.10;99.90
14236;DHT22;7202;50.718;7.072;2022-08-21T01:47:07;16.10;99.90
14236;DHT22;7202;50.718;7.072;2022-08-21T01:49:37;16.10;99.90
14236;DHT22;7202;50.718;7.072;2022-08-21T01:52:07;16.00;99.90
14236;DHT22;7202;50.718;7.072;2022-08-21T01:54:37;16.00;99.90
14236;DHT22;7202;50.718;7.072;2022-08-21T01:57:05;15.90;99.90
14236;DHT22;7202;50.718;7.072;2022-08-21T01:59:36;15.90;99.90
14236;DHT22;7202;50.718;7.072;2022-08-21T02:02:05;15.80;99.90
14236;DHT22;7202;50.718;7.072;2022-08-21T02:04:34;15.80;99.90
14236;DHT22;7202;50.718;7.072;2022-08-21T02:07:04;15.80;99.90
14236;DHT22;7202;50.718;7.072;2022-08-21T02:09:38;15.70;99.90
14236;DHT22;7202;50.718;7.072;2022-08-21T02:12:09;15.70;99.90
14236;DHT22;7202;50.718;7.072;2022-08-21T02:14:38;15.60;99.90
14236;DHT22;7202;50.718;7.072;2022-08-21T02:17:06;15.60;99.90
14236;DHT22;7202;50.718;7.072;2022-08-21T02:19:37;15.50;99.90
14236;DHT22;7202;50.718;7.072;2022-08-21T02:22:07;15.50;99.90
14236;DHT22;7202;50.718;7.072;2022-08-21T02:24:38;15.40;99.90
14236;DHT22;7202;50.718;7.072;2022-08-21T02:27:22;15.40;99.90
14236;DHT22;7202;50.718;7.072;2022-08-21T02:29:55;15.40;99.90
14236;DHT22;7202;50.718;7.072;2022-08-21T02:32:25;15.40;99.90
14236;DHT22;7202;50.718;7.072;2022-08-21T02:34:54;15.40;99.90
14236;DHT22;7202;50.718;7.072;2022-08-21T02:37:23;15.40;99.90
14236;DHT22;7202;50.718;7.072;2022-08-21T02:39:53;15.30;99.90
14236;DHT22;7202;50.718;7.072;2022-08-21T02:42:22;15.30;99.90
14236;DHT22;7202;50.718;7.072;2022-08-21T02:44:51;15.20;99.90
14236;DHT22;7202;50.718;7.072;2022-08-21T02:47:19;15.20;99.90
14236;DHT22;7202;50.718;7.072;2022-08-21T02:49:48;15.20;99.90
14236;DHT22;7202;50.718;7.072;2022-08-21T02:52:16;15.10;99.90
14236;DHT22;7202;50.718;7.072;2022-08-21T02:54:45;15.10;99.90
14236;DHT22;7202;50.718;7.072;2022-08-21T02:57:15;15.10;99.90
14236;DHT22;7202;50.718;7.072;2022-08-21T02:59:44;15.10;99.90
14236;DHT22;7202;50.718;7.072;2022-08-21T03:02:14;15.10;99.90
14236;DHT22;7202;50.718;7.072;2022-08-21T03:04:42;15.10;99.90
14236;DHT22;7202;50.718;7.072;2022-08-21T03:07:14;15.10;99.90
14236;DHT22;7202;50.718;7.072;2022-08-21T03:09:43;15.10;99.90
14236;DHT22;7202;50.718;7.072;2022-08-21T03:12:23;15.10;99.90
14236;DHT22;7202;50.718;7.072;2022-08-21T03:14:56;15.20;99.90
14236;DHT22;7202;50.718;7.072;2022-08-21T03:17:25;15.20;99.90
14236;DHT22;7202;50.718;7.072;2022-08-21T03:19:56;15.20;99.90
14236;DHT22;7202;50.718;7.072;2022-08-21T03:22:26;15.20;99.90
14236;DHT22;7202;50.718;7.072;2022-08-21T03:24:57;15.20;99.90
14236;DHT22;7202;50.718;7.072;2022-08-21T03:27:28;15.20;99.90
14236;DHT22;7202;50.718;7.072;2022-08-21T03:29:58;15.20;99.90
14236;DHT22;7202;50.718;7.072;2022-08-21T03:32:27;15.20;99.90
14236;DHT22;7202;50.718;7.072;2022-08-21T03:34:56;15.20;99.90
14236;DHT22;7202;50.718;7.072;2022-08-21T03:37:25;15.10;99.90
14236;DHT22;7202;50.718;7.072;2022-08-21T03:39:54;15.00;99.90
14236;DHT22;7202;50.718;7.072;2022-08-21T03:42:23;15.00;99.90
14236;DHT22;7202;50.718;7.072;2022-08-21T03:44:53;14.90;99.90
14236;DHT22;7202;50.718;7.072;2022-08-21T03:47:22;14.90;99.90
14236;DHT22;7202;50.718;7.072;2022-08-21T03:49:51;14.90;99.90
14236;DHT22;7202;50.718;7.072;2022-08-21T03:52:19;14.80;99.90
14236;DHT22;7202;50.718;7.072;2022-08-21T03:54:48;14.80;99.90
14236;DHT22;7202;50.718;7.072;2022-08-21T03:57:17;14.70;99.90
14236;DHT22;7202;50.718;7.072;2022-08-21T03:59:46;14.70;99.90
14236;DHT22;7202;50.718;7.072;2022-08-21T04:02:17;14.70;99.90
14236;DHT22;7202;50.718;7.072;2022-08-21T04:04:48;14.70;99.90
14236;DHT22;7202;50.718;7.072;2022-08-21T04:07:17;14.60;99.90
14236;DHT22;7202;50.718;7.072;2022-08-21T04:09:45;14.60;99.90
14236;DHT22;7202;50.718;7.072;2022-08-21T04:12:14;14.60;99.90
14236;DHT22;7202;50.718;7.072;2022-08-21T04:14:42;14.50;99.90
14236;DHT22;7202;50.718;7.072;2022-08-21T04:17:11;14.50;99.90
14236;DHT22;7202;50.718;7.072;2022-08-21T04:19:41;14.50;99.90
14236;DHT22;7202;50.718;7.072;2022-08-21T04:22:10;14.40;99.90
14236;DHT22;7202;50.718;7.072;2022-08-21T04:24:38;14.40;99.90
14236;DHT22;7202;50.718;7.072;2022-08-21T04:27:07;14.40;99.90
14236;DHT22;7202;50.718;7.072;2022-08-21T04:29:36;14.40;99.90
14236;DHT22;7202;50.718;7.072;2022-08-21T04:32:06;14.40;99.90
14236;DHT22;7202;50.718;7.072;2022-08-21T04:34:35;14.40;99.90
14236;DHT22;7202;50.718;7.072;2022-08-21T04:37:05;14.40;99.90
14236;DHT22;7202;50.718;7.072;2022-08-21T04:39:34;14.40;99.90
14236;DHT22;7202;50.718;7.072;2022-08-21T04:42:03;14.30;99.90
14236;DHT22;7202;50.718;7.072;2022-08-21T04:44:34;14.40;99.90
14236;DHT22;7202;50.718;7.072;2022-08-21T04:47:02;14.40;99.90
14236;DHT22;7202;50.718;7.072;2022-08-21T04:49:31;14.40;99.90
14236;DHT22;7202;50.718;7.072;2022-08-21T04:52:00;14.40;99.90
14236;DHT22;7202;50.718;7.072;2022-08-21T04:54:31;14.40;99.90
14236;DHT22;7202;50.718;7.072;2022-08-21T04:57:02;14.40;99.90
14236;DHT22;7202;50.718;7.072;2022-08-21T04:59:36;14.40;99.90
14236;DHT22;7202;50.718;7.072;2022-08-21T05:02:06;14.40;99.90
14236;DHT22;7202;50.718;7.072;2022-08-21T05:04:40;14.50;99.90
14236;DHT22;7202;50.718;7.072;2022-08-21T05:07:13;14.50;99.90
14236;DHT22;7202;50.718;7.072;2022-08-21T05:10:05;14.50;99.90
14236;DHT22;7202;50.718;7.072;2022-08-21T05:12:35;14.50;99.90
14236;DHT22;7202;50.718;7.072;2022-08-21T05:15:05;14.40;99.90
14236;DHT22;7202;50.718;7.072;2022-08-21T05:17:39;14.40;99.90
14236;DHT22;7202;50.718;7.072;2022-08-21T05:20:09;14.40;99.90
14236;DHT22;7202;50.718;7.072;2022-08-21T05:22:38;14.40;99.90
14236;DHT22;7202;50.718;7.072;2022-08-21T05:25:09;14.40;99.90
14236;DHT22;7202;50.718;7.072;2022-08-21T05:27:39;14.40;99.90
14236;DHT22;7202;50.718;7.072;2022-08-21T05:30:10;14.50;99.90
14236;DHT22;7202;50.718;7.072;2022-08-21T05:32:39;14.50;99.90
14236;DHT22;7202;50.718;7.072;2022-08-21T05:35:08;14.50;99.90
14236;DHT22;7202;50.718;7.072;2022-08-21T05:37:37;14.60;99.90
14236;DHT22;7202;50.718;7.072;2022-08-21T05:40:09;14.70;99.90
14236;DHT22;7202;50.718;7.072;2022-08-21T05:42:48;14.70;99.90
14236;DHT22;7202;50.718;7.072;2022-08-21T05:45:22;14.80;99.90
14236;DHT22;7202;50.718;7.072;2022-08-21T05:48:12;14.90;99.90
14236;DHT22;7202;50.718;7.072;2022-08-21T05:50:41;14.90;99.90
14236;DHT22;7202;50.718;7.072;2022-08-21T05:53:10;14.90;99.90
14236;DHT22;7202;50.718;7.072;2022-08-21T05:55:41;15.00;99.90
14236;DHT22;7202;50.718;7.072;2022-08-21T05:58:14;15.10;99.90
14236;DHT22;7202;50.718;7.072;2022-08-21T06:00:43;15.20;99.90
14236;DHT22;7202;50.718;7.072;2022-08-21T06:03:14;15.40;99.90
14236;DHT22;7202;50.718;7.072;2022-08-21T06:05:44;15.50;99.90
14236;DHT22;7202;50.718;7.072;2022-08-21T06:08:13;15.70;99.90
14236;DHT22;7202;50.718;7.072;2022-08-21T06:10:43;15.90;99.90
14236;DHT22;7202;50.718;7.072;2022-08-21T06:13:13;16.00;99.90
14236;DHT22;7202;50.718;7.072;2022-08-21T06:15:42;16.10;99.90
14236;DHT22;7202;50.718;7.072;2022-08-21T06:18:11;16.30;99.90
14236;DHT22;7202;50.718;7.072;2022-08-21T06:20:40;16.40;99.90
14236;DHT22;7202;50.718;7.072;2022-08-21T06:23:09;16.60;99.90
14236;DHT22;7202;50.718;7.072;2022-08-21T06:25:38;16.70;99.90
14236;DHT22;7202;50.718;7.072;2022-08-21T06:28:09;16.80;99.90
14236;DHT22;7202;50.718;7.072;2022-08-21T06:30:39;16.80;99.90
14236;DHT22;7202;50.718;7.072;2022-08-21T06:33:08;17.00;99.90
14236;DHT22;7202;50.718;7.072;2022-08-21T06:35:36;17.10;99.90
14236;DHT22;7202;50.718;7.072;2022-08-21T06:38:08;17.20;99.90
14236;DHT22;7202;50.718;7.072;2022-08-21T06:40:37;17.20;99.90
14236;DHT22;7202;50.718;7.072;2022-08-21T06:43:16;17.30;99.90
14236;DHT22;7202;50.718;7.072;2022-08-21T06:45:45;17.40;99.90
14236;DHT22;7202;50.718;7.072;2022-08-21T06:48:13;17.50;99.90
14236;DHT22;7202;50.718;7.072;2022-08-21T06:50:46;17.50;99.90
14236;DHT22;7202;50.718;7.072;2022-08-21T06:53:17;17.60;99.90
14236;DHT22;7202;50.718;7.072;2022-08-21T06:55:47;17.70;99.90
14236;DHT22;7202;50.718;7.072;2022-08-21T06:58:17;17.70;99.90
14236;DHT22;7202;50.718;7.072;2022-08-21T07:00:48;17.80;99.90
14236;DHT22;7202;50.718;7.072;2022-08-21T07:03:22;17.80;99.90
14236;DHT22;7202;50.718;7.072;2022-08-21T07:05:52;17.90;99.90
14236;DHT22;7202;50.718;7.072;2022-08-21T07:08:21;17.90;99.90
14236;DHT22;7202;50.718;7.072;2022-08-21T07:10:50;17.90;99.90
14236;DHT22;7202;50.718;7.072;2022-08-21T07:13:20;18.00;99.90
14236;DHT22;7202;50.718;7.072;2022-08-21T07:15:49;18.10;99.90
14236;DHT22;7202;50.718;7.072;2022-08-21T07:18:17;18.20;99.90
14236;DHT22;7202;50.718;7.072;2022-08-21T07:20:47;18.20;99.90
14236;DHT22;7202;50.718;7.072;2022-08-21T07:23:20;18.30;99.90
14236;DHT22;7202;50.718;7.072;2022-08-21T07:25:50;18.30;99.90
14236;DHT22;7202;50.718;7.072;2022-08-21T07:28:20;18.30;99.90
14236;DHT22;7202;50.718;7.072;2022-08-21T07:30:50;18.40;99.90
14236;DHT22;7202;50.718;7.072;2022-08-21T07:33:20;18.40;99.90
14236;DHT22;7202;50.718;7.072;2022-08-21T07:35:48;18.40;99.90
14236;DHT22;7202;50.718;7.072;2022-08-21T07:38:17;18.50;99.90
14236;DHT22;7202;50.718;7.072;2022-08-21T07:40:47;18.60;99.90
14236;DHT22;7202;50.718;7.072;2022-08-21T07:43:16;18.60;99.90
14236;DHT22;7202;50.718;7.072;2022-08-21T07:45:47;18.70;99.90
14236;DHT22;7202;50.718;7.072;2022-08-21T07:48:16;18.70;99.90
14236;DHT22;7202;50.718;7.072;2022-08-21T07:50:45;18.80;99.90
14236;DHT22;7202;50.718;7.072;2022-08-21T07:53:14;18.90;99.90
14236;DHT22;7202;50.718;7.072;2022-08-21T07:55:43;18.90;99.90
14236;DHT22;7202;50.718;7.072;2022-08-21T07:58:11;19.00;99.90
14236;DHT22;7202;50.718;7.072;2022-08-21T08:00:40;19.10;99.90
14236;DHT22;7202;50.718;7.072;2022-08-21T08:03:10;19.10;99.90
14236;DHT22;7202;50.718;7.072;2022-08-21T08:05:39;19.20;99.90
14236;DHT22;7202;50.718;7.072;2022-08-21T08:08:08;19.20;99.90
14236;DHT22;7202;50.718;7.072;2022-08-21T08:10:38;19.30;99.90
14236;DHT22;7202;50.718;7.072;2022-08-21T08:13:07;19.40;99.90
14236;DHT22;7202;50.718;7.072;2022-08-21T08:15:37;19.40;99.90
14236;DHT22;7202;50.718;7.072;2022-08-21T08:18:05;19.50;99.90
14236;DHT22;7202;50.718;7.072;2022-08-21T08:20:36;19.60;99.90
14236;DHT22;7202;50.718;7.072;2022-08-21T08:23:04;19.60;99.90
14236;DHT22;7202;50.718;7.072;2022-08-21T08:25:33;19.60;99.90
14236;DHT22;7202;50.718;7.072;2022-08-21T08:28:04;19.70;99.90
14236;DHT22;7202;50.718;7.072;2022-08-21T08:30:44;19.80;99.90
14236;DHT22;7202;50.718;7.072;2022-08-21T08:33:13;19.90;99.90
14236;DHT22;7202;50.718;7.072;2022-08-21T08:35:46;20.00;99.90
14236;DHT22;7202;50.718;7.072;2022-08-21T08:38:17;20.10;99.90
14236;DHT22;7202;50.718;7.072;2022-08-21T08:40:52;20.30;99.90
14236;DHT22;7202;50.718;7.072;2022-08-21T08:43:21;20.30;99.90
14236;DHT22;7202;50.718;7.072;2022-08-21T08:45:51;20.40;99.90
14236;DHT22;7202;50.718;7.072;2022-08-21T08:48:33;20.40;99.90
14236;DHT22;7202;50.718;7.072;2022-08-21T08:51:15;20.50;99.90
14236;DHT22;7202;50.718;7.072;2022-08-21T08:53:49;20.50;99.90
14236;DHT22;7202;50.718;7.072;2022-08-21T08:56:27;20.70;99.90
14236;DHT22;7202;50.718;7.072;2022-08-21T08:59:00;20.70;99.90
14236;DHT22;7202;50.718;7.072;2022-08-21T09:01:30;20.80;99.90
14236;DHT22;7202;50.718;7.072;2022-08-21T09:04:05;20.80;99.90
14236;DHT22;7202;50.718;7.072;2022-08-21T09:06:45;20.80;99.90
14236;DHT22;7202;50.718;7.072;2022-08-21T09:09:25;20.90;99.90
14236;DHT22;7202;50.718;7.072;2022-08-21T09:12:01;20.90;99.90
14236;DHT22;7202;50.718;7.072;2022-08-21T09:14:47;21.00;99.90
14236;DHT22;7202;50.718;7.072;2022-08-21T09:17:30;21.10;99.90
14236;DHT22;7202;50.718;7.072;2022-08-21T09:20:14;21.20;99.90
14236;DHT22;7202;50.718;7.072;2022-08-21T09:22:59;21.30;99.90
14236;DHT22;7202;50.718;7.072;2022-08-21T09:25:38;21.40;99.90
14236;DHT22;7202;50.718;7.072;2022-08-21T09:28:11;21.50;99.90
14236;DHT22;7202;50.718;7.072;2022-08-21T09:30:41;21.60;99.90
14236;DHT22;7202;50.718;7.072;2022-08-21T09:33:13;21.70;99.90
14236;DHT22;7202;50.718;7.072;2022-08-21T09:35:52;21.80;99.90
14236;DHT22;7202;50.718;7.072;2022-08-21T09:38:29;22.00;99.90
14236;DHT22;7202;50.718;7.072;2022-08-21T09:41:02;22.10;99.90
14236;DHT22;7202;50.718;7.072;2022-08-21T09:43:32;22.10;99.90
14236;DHT22;7202;50.718;7.072;2022-08-21T09:46:08;22.10;99.90
14236;DHT22;7202;50.718;7.072;2022-08-21T09:48:44;22.20;99.90
14236;DHT22;7202;50.718;7.072;2022-08-21T09:51:17;22.30;99.90
14236;DHT22;7202;50.718;7.072;2022-08-21T09:53:51;22.40;99.90
14236;DHT22;7202;50.718;7.072;2022-08-21T09:56:29;22.50;99.90
14236;DHT22;7202;50.718;7.072;2022-08-21T09:59:19;22.50;99.90
14236;DHT22;7202;50.718;7.072;2022-08-21T10:01:51;22.50;99.90
14236;DHT22;7202;50.718;7.072;2022-08-21T10:04:23;22.50;99.90
14236;DHT22;7202;50.718;7.072;2022-08-21T10:06:52;22.50;99.90
14236;DHT22;7202;50.718;7.072;2022-08-21T10:09:25;22.60;99.90
14236;DHT22;7202;50.718;7.072;2022-08-21T10:12:00;22.60;99.90
14236;DHT22;7202;50.718;7.072;2022-08-21T10:14:45;22.70;99.90
14236;DHT22;7202;50.718;7.072;2022-08-21T10:17:22;22.80;99.90
14236;DHT22;7202;50.718;7.072;2022-08-21T10:19:59;23.00;99.90
14236;DHT22;7202;50.718;7.072;2022-08-21T10:22:37;23.10;99.90
14236;DHT22;7202;50.718;7.072;2022-08-21T10:25:17;23.20;99.90
14236;DHT22;7202;50.718;7.072;2022-08-21T10:27:54;23.40;99.90
14236;DHT22;7202;50.718;7.072;2022-08-21T10:30:36;23.50;99.90
14236;DHT22;7202;50.718;7.072;2022-08-21T10:33:16;23.50;99.90
14236;DHT22;7202;50.718;7.072;2022-08-21T10:35:53;23.50;99.90
14236;DHT22;7202;50.718;7.072;2022-08-21T10:42:03;23.70;99.90
14236;DHT22;7202;50.718;7.072;2022-08-21T10:44:39;23.80;99.90
14236;DHT22;7202;50.718;7.072;2022-08-21T10:47:17;23.80;99.90
14236;DHT22;7202;50.718;7.072;2022-08-21T10:49:54;23.80;99.90
14236;DHT22;7202;50.718;7.072;2022-08-21T10:52:37;24.00;99.90
14236;DHT22;7202;50.718;7.072;2022-08-21T10:55:15;24.10;99.90
14236;DHT22;7202;50.718;7.072;2022-08-21T10:57:52;24.20;99.90
14236;DHT22;7202;50.718;7.072;2022-08-21T11:00:26;24.20;99.90
14236;DHT22;7202;50.718;7.072;2022-08-21T11:03:01;24.30;99.90
14236;DHT22;7202;50.718;7.072;2022-08-21T11:05:34;24.30;99.90
14236;DHT22;7202;50.718;7.072;2022-08-21T11:08:08;24.40;99.90
14236;DHT22;7202;50.718;7.072;2022-08-21T11:10:42;24.50;99.90
14236;DHT22;7202;50.718;7.072;2022-08-21T11:13:35;24.60;99.90
14236;DHT22;7202;50.718;7.072;2022-08-21T11:16:10;24.60;99.90
14236;DHT22;7202;50.718;7.072;2022-08-21T11:18:42;24.70;99.90
14236;DHT22;7202;50.718;7.072;2022-08-21T11:21:29;24.70;99.90
14236;DHT22;7202;50.718;7.072;2022-08-21T11:24:03;24.80;99.90
14236;DHT22;7202;50.718;7.072;2022-08-21T11:26:38;24.80;99.90
14236;DHT22;7202;50.718;7.072;2022-08-21T11:29:13;24.90;99.90
14236;DHT22;7202;50.718;7.072;2022-08-21T11:31:56;24.90;99.90
14236;DHT22;7202;50.718;7.072;2022-08-21T11:34:39;25.00;99.90
14236;DHT22;7202;50.718;7.072;2022-08-21T11:37:19;25.00;99.90
14236;DHT22;7202;50.718;7.072;2022-08-21T11:39:56;25.00;99.90
14236;DHT22;7202;50.718;7.072;2022-08-21T11:42:32;25.10;99.90
14236;DHT22;7202;50.718;7.072;2022-08-21T11:45:16;25.10;99.90
14236;DHT22;7202;50.718;7.072;2022-08-21T11:47:58;25.20;99.90
14236;DHT22;7202;50.718;7.072;2022-08-21T11:50:30;25.20;99.90
14236;DHT22;7202;50.718;7.072;2022-08-21T11:53:09;25.30;99.90
14236;DHT22;7202;50.718;7.072;2022-08-21T11:55:44;25.30;99.90
14236;DHT22;7202;50.718;7.072;2022-08-21T11:58:18;25.40;99.90
14236;DHT22;7202;50.718;7.072;2022-08-21T12:00:52;25.50;99.90
14236;DHT22;7202;50.718;7.072;2022-08-21T12:03:27;25.50;99.90
14236;DHT22;7202;50.718;7.072;2022-08-21T12:05:58;25.60;99.90
14236;DHT22;7202;50.718;7.072;2022-08-21T12:08:31;25.70;99.90
14236;DHT22;7202;50.718;7.072;2022-08-21T12:11:04;25.80;99.90
14236;DHT22;7202;50.718;7.072;2022-08-21T12:13:36;25.90;99.90
14236;DHT22;7202;50.718;7.072;2022-08-21T12:16:14;26.00;99.90
14236;DHT22;7202;50.718;7.072;2022-08-21T12:18:43;26.10;99.90
14236;DHT22;7202;50.718;7.072;2022-08-21T12:21:22;26.20;99.90
14236;DHT22;7202;50.718;7.072;2022-08-21T12:24:02;26.30;99.90
14236;DHT22;7202;50.718;7.072;2022-08-21T12:26:34;26.40;99.90
14236;DHT22;7202;50.718;7.072;2022-08-21T12:29:11;26.50;99.90
14236;DHT22;7202;50.718;7.072;2022-08-21T12:32:00;26.60;99.90
14236;DHT22;7202;50.718;7.072;2022-08-21T12:34:36;26.60;99.50
14236;DHT22;7202;50.718;7.072;2022-08-21T12:37:12;26.70;99.90
14236;DHT22;7202;50.718;7.072;2022-08-21T12:39:44;26.70;99.60
14236;DHT22;7202;50.718;7.072;2022-08-21T12:42:17;26.80;99.00
14236;DHT22;7202;50.718;7.072;2022-08-21T12:44:53;26.70;98.40
14236;DHT22;7202;50.718;7.072;2022-08-21T12:47:29;26.60;98.70
14236;DHT22;7202;50.718;7.072;2022-08-21T12:50:03;26.50;98.70
14236;DHT22;7202;50.718;7.072;2022-08-21T12:52:34;26.40;98.70
14236;DHT22;7202;50.718;7.072;2022-08-21T12:55:07;26.20;98.70
14236;DHT22;7202;50.718;7.072;2022-08-21T12:57:36;26.10;99.40
14236;DHT22;7202;50.718;7.072;2022-08-21T13:00:08;26.30;99.30
14236;DHT22;7202;50.718;7.072;2022-08-21T13:02:45;26.30;99.30
14236;DHT22;7202;50.718;7.072;2022-08-21T13:05:19;26.50;99.40
14236;DHT22;7202;50.718;7.072;2022-08-21T13:07:48;26.60;98.20
14236;DHT22;7202;50.718;7.072;2022-08-21T13:10:20;26.60;98.50
14236;DHT22;7202;50.718;7.072;2022-08-21T13:12:49;26.60;98.10
14236;DHT22;7202;50.718;7.072;2022-08-21T13:15:25;26.50;97.80
14236;DHT22;7202;50.718;7.072;2022-08-21T13:18:03;26.50;97.90
14236;DHT22;7202;50.718;7.072;2022-08-21T13:20:35;26.40;97.80
14236;DHT22;7202;50.718;7.072;2022-08-21T13:23:13;26.20;97.70
14236;DHT22;7202;50.718;7.072;2022-08-21T13:25:44;26.10;97.80
14236;DHT22;7202;50.718;7.072;2022-08-21T13:28:13;25.80;98.10
14236;DHT22;7202;50.718;7.072;2022-08-21T13:30:44;25.70;98.30
14236;DHT22;7202;50.718;7.072;2022-08-21T13:33:18;25.60;98.50
14236;DHT22;7202;50.718;7.072;2022-08-21T13:35:50;25.50;99.80
14236;DHT22;7202;50.718;7.072;2022-08-21T13:38:20;25.50;99.90
14236;DHT22;7202;50.718;7.072;2022-08-21T13:40:56;25.50;99.90
14236;DHT22;7202;50.718;7.072;2022-08-21T13:43:28;25.50;99.90
14236;DHT22;7202;50.718;7.072;2022-08-21T13:46:00;25.50;99.90
14236;DHT22;7202;50.718;7.072;2022-08-21T13:48:33;25.60;99.90
14236;DHT22;7202;50.718;7.072;2022-08-21T13:51:03;25.70;99.90
14236;DHT22;7202;50.718;7.072;2022-08-21T13:53:34;25.80;99.90
14236;DHT22;7202;50.718;7.072;2022-08-21T13:56:04;25.90;99.90
14236;DHT22;7202;50.718;7.072;2022-08-21T13:58:41;26.00;99.20
14236;DHT22;7202;50.718;7.072;2022-08-21T14:01:19;26.20;97.90
14236;DHT22;7202;50.718;7.072;2022-08-21T14:03:53;26.30;98.50
14236;DHT22;7202;50.718;7.072;2022-08-21T14:06:25;26.50;98.00
14236;DHT22;7202;50.718;7.072;2022-08-21T14:08:57;26.70;98.10
14236;DHT22;7202;50.718;7.072;2022-08-21T14:11:32;26.70;98.40
14236;DHT22;7202;50.718;7.072;2022-08-21T14:14:05;26.80;98.80
14236;DHT22;7202;50.718;7.072;2022-08-21T14:16:43;26.90;98.10
14236;DHT22;7202;50.718;7.072;2022-08-21T14:19:19;27.00;97.70
14236;DHT22;7202;50.718;7.072;2022-08-21T14:21:48;27.00;97.90
14236;DHT22;7202;50.718;7.072;2022-08-21T14:24:27;27.00;98.10
14236;DHT22;7202;50.718;7.072;2022-08-21T14:26:58;27.00;97.90
14236;DHT22;7202;50.718;7.072;2022-08-21T14:29:39;27.10;98.20
14236;DHT22;7202;50.718;7.072;2022-08-21T14:32:13;27.10;97.90
14236;DHT22;7202;50.718;7.072;2022-08-21T14:34:53;27.00;97.70
14236;DHT22;7202;50.718;7.072;2022-08-21T14:37:25;26.90;97.70
14236;DHT22;7202;50.718;7.072;2022-08-21T14:39:54;26.80;98.20
14236;DHT22;7202;50.718;7.072;2022-08-21T14:42:23;26.70;98.20
14236;DHT22;7202;50.718;7.072;2022-08-21T14:44:54;26.60;98.70
14236;DHT22;7202;50.718;7.072;2022-08-21T14:47:24;26.50;97.70
14236;DHT22;7202;50.718;7.072;2022-08-21T14:49:54;26.40;98.20
14236;DHT22;7202;50.718;7.072;2022-08-21T14:52:22;26.40;98.50
14236;DHT22;7202;50.718;7.072;2022-08-21T14:54:51;26.30;99.00
14236;DHT22;7202;50.718;7.072;2022-08-21T14:57:19;26.20;99.60
14236;DHT22;7202;50.718;7.072;2022-08-21T14:59:48;26.20;99.50
14236;DHT22;7202;50.718;7.072;2022-08-21T15:02:17;26.10;99.90
14236;DHT22;7202;50.718;7.072;2022-08-21T15:04:45;26.10;98.50
14236;DHT22;7202;50.718;7.072;2022-08-21T15:07:15;26.10;99.20
14236;DHT22;7202;50.718;7.072;2022-08-21T15:09:44;26.20;98.70
14236;DHT22;7202;50.718;7.072;2022-08-21T15:12:13;26.10;99.00
14236;DHT22;7202;50.718;7.072;2022-08-21T15:14:42;26.10;99.40
14236;DHT22;7202;50.718;7.072;2022-08-21T15:17:11;26.10;99.00
14236;DHT22;7202;50.718;7.072;2022-08-21T15:19:40;26.10;99.30
14236;DHT22;7202;50.718;7.072;2022-08-21T15:22:09;26.00;99.80
14236;DHT22;7202;50.718;7.072;2022-08-21T15:24:46;26.00;99.90
14236;DHT22;7202;50.718;7.072;2022-08-21T15:27:16;25.90;99.90
14236;DHT22;7202;50.718;7.072;2022-08-21T15:29:47;25.90;99.60
14236;DHT22;7202;50.718;7.072;2022-08-21T15:32:18;25.80;99.90
14236;DHT22;7202;50.718;7.072;2022-08-21T15:34:48;25.80;99.70
14236;DHT22;7202;50.718;7.072;2022-08-21T15:37:17;25.80;99.70
14236;DHT22;7202;50.718;7.072;2022-08-21T15:39:48;25.70;99.50
14236;DHT22;7202;50.718;7.072;2022-08-21T15:42:23;25.60;99.90
14236;DHT22;7202;50.718;7.072;2022-08-21T15:44:54;25.60;99.90
14236;DHT22;7202;50.718;7.072;2022-08-21T15:47:28;25.50;99.90
14236;DHT22;7202;50.718;7.072;2022-08-21T15:49:57;25.50;99.90
14236;DHT22;7202;50.718;7.072;2022-08-21T15:52:26;25.50;99.90
14236;DHT22;7202;50.718;7.072;2022-08-21T15:54:56;25.50;99.90
14236;DHT22;7202;50.718;7.072;2022-08-21T15:57:25;25.40;99.40
14236;DHT22;7202;50.718;7.072;2022-08-21T15:59:57;25.40;99.90
14236;DHT22;7202;50.718;7.072;2022-08-21T16:02:29;25.30;99.90
14236;DHT22;7202;50.718;7.072;2022-08-21T16:04:58;25.30;99.90
14236;DHT22;7202;50.718;7.072;2022-08-21T16:07:27;25.20;99.90
14236;DHT22;7202;50.718;7.072;2022-08-21T16:09:57;25.20;99.90
14236;DHT22;7202;50.718;7.072;2022-08-21T16:12:28;25.20;99.90
14236;DHT22;7202;50.718;7.072;2022-08-21T16:14:59;25.10;99.90
14236;DHT22;7202;50.718;7.072;2022-08-21T16:17:30;25.20;99.90
14236;DHT22;7202;50.718;7.072;2022-08-21T16:20:01;25.20;99.90